Time;durP1;ratioP1;P1;durP2;ratioP2;P2;SDS_P1;SDS_P2;PMS_P1;PMS_P2;Temp;Humidity;BMP_temperature;BMP_pressure;BME280_temperature;BME280_humidity;BME280_pressure;Samples;Min_cycle;Max_cycle;Signal;HPM_P1;HPM_P2
2024/03/09 00:00:42;;;;;;;25.92;18.85;;;;;;;6.87;82.13;100346.41;5285717;28;20059;-78
2024/03/09 00:03:14;;;;;;;24.20;17.48;;;;;;;6.85;82.14;100351.69;5285944;28;20952;-78
2024/03/09 00:05:46;;;;;;;25.35;17.67;;;;;;;6.85;82.01;100343.06;5285577;28;20059;-78
2024/03/09 00:08:18;;;;;;;22.92;18.15;;;;;;;6.85;81.35;100337.84;5287283;28;20024;-78
2024/03/09 00:10:50;;;;;;;22.50;17.42;;;;;;;6.87;81.61;100359.41;5288446;28;20035;-78
2024/03/09 00:13:22;;;;;;;26.17;18.30;;;;;;;6.73;84.33;100344.84;5287484;28;20108;-78
2024/03/09 00:15:54;;;;;;;25.33;18.42;;;;;;;6.82;82.85;100355.38;5288444;28;20039;-78
2024/03/09 00:18:27;;;;;;;27.52;19.40;;;;;;;6.76;82.67;100355.03;5289702;28;20023;-78
2024/03/09 00:20:59;;;;;;;27.03;18.00;;;;;;;6.73;82.84;100343.06;5287404;28;20052;-78
2024/03/09 00:23:30;;;;;;;23.42;17.42;;;;;;;6.69;82.22;100341.66;5287269;28;20075;-78
2024/03/09 00:26:05;;;;;;;23.48;17.92;;;;;;;6.70;82.56;100360.69;5285987;28;20051;-78
2024/03/09 00:28:40;;;;;;;24.48;17.85;;;;;;;6.75;81.97;100363.78;5268958;28;20044;-78
2024/03/09 00:31:12;;;;;;;25.05;17.60;;;;;;;6.69;83.57;100372.06;5285049;28;20039;-78
2024/03/09 00:33:44;;;;;;;25.63;18.75;;;;;;;6.51;83.50;100336.06;5284840;28;20028;-78
2024/03/09 00:36:17;;;;;;;24.33;18.13;;;;;;;6.59;84.19;100364.09;5286998;28;20028;-78
2024/03/09 00:38:49;;;;;;;26.70;18.77;;;;;;;6.63;83.68;100362.09;5284215;28;20032;-78
2024/03/09 00:41:20;;;;;;;22.70;17.63;;;;;;;6.58;83.34;100355.47;5280434;28;20032;-78
2024/03/09 00:43:54;;;;;;;24.23;18.38;;;;;;;6.61;84.13;100356.19;5286244;28;20028;-78
2024/03/09 00:46:26;;;;;;;24.75;17.00;;;;;;;6.60;84.75;100349.34;5265684;28;20036;-78
2024/03/09 00:48:58;;;;;;;26.20;18.45;;;;;;;6.52;83.60;100340.34;5285763;28;20024;-78
2024/03/09 00:51:30;;;;;;;23.48;17.25;;;;;;;6.58;83.68;100337.25;5286840;28;20604;-78
2024/03/09 00:54:02;;;;;;;25.60;18.20;;;;;;;6.61;84.38;100337.97;5284759;28;20051;-78
2024/03/09 00:56:34;;;;;;;25.80;17.13;;;;;;;6.55;83.89;100334.91;5287061;28;20146;-78
2024/03/09 00:59:06;;;;;;;23.45;17.52;;;;;;;6.54;83.77;100330.63;5287726;28;20028;-78
2024/03/09 01:01:38;;;;;;;23.83;17.70;;;;;;;6.47;83.38;100324.22;5288920;28;20046;-78
2024/03/09 01:04:10;;;;;;;24.23;18.25;;;;;;;6.44;83.71;100319.28;5271300;28;20039;-78
2024/03/09 01:06:42;;;;;;;23.88;17.77;;;;;;;6.48;85.98;100331.09;5287461;28;20032;-78
2024/03/09 01:09:14;;;;;;;23.60;18.15;;;;;;;6.06;85.38;100283.97;5290402;28;20032;-78
2024/03/09 01:11:48;;;;;;;22.80;17.88;;;;;;;6.22;85.38;100311.44;5290777;28;20028;-78
2024/03/09 01:14:20;;;;;;;22.85;17.33;;;;;;;6.27;86.24;100327.50;5284542;28;20047;-78
2024/03/09 01:16:52;;;;;;;24.20;18.15;;;;;;;6.22;86.11;100314.84;5288752;28;20032;-78
2024/03/09 01:19:24;;;;;;;20.88;16.60;;;;;;;6.27;86.13;100320.53;5286757;28;20039;-78
2024/03/09 01:22:04;;;;;;;26.73;18.90;;;;;;;6.28;89.25;100322.19;5287677;28;20053;-78
2024/03/09 01:24:37;;;;;;;26.05;18.50;;;;;;;6.26;85.98;100312.84;5288424;28;20032;-78
2024/03/09 01:27:09;;;;;;;24.25;17.60;;;;;;;6.17;87.02;100306.56;5287073;28;20040;-78
2024/03/09 01:29:46;;;;;;;23.77;18.15;;;;;;;6.26;86.46;100307.66;5289618;28;20481;-78
2024/03/09 01:32:18;;;;;;;21.90;17.95;;;;;;;6.20;87.63;100301.13;5287666;28;20048;-78
2024/03/09 01:34:51;;;;;;;23.73;18.33;;;;;;;6.28;86.43;100300.56;5287594;28;20093;-78
2024/03/09 01:37:23;;;;;;;27.83;20.02;;;;;;;6.17;87.61;100292.72;5290040;28;20039;-78
2024/03/09 01:39:56;;;;;;;27.48;20.45;;;;;;;6.13;86.63;100292.13;5287033;28;20040;-78
2024/03/09 01:42:28;;;;;;;23.73;18.77;;;;;;;6.16;87.00;100301.47;5283598;28;20043;-78
2024/03/09 01:45:05;;;;;;;24.98;18.90;;;;;;;6.16;86.89;100291.06;5282658;28;20035;-78
2024/03/09 01:47:37;;;;;;;24.73;19.33;;;;;;;6.11;89.78;100290.59;5269880;28;20560;-77
2024/03/09 01:50:10;;;;;;;27.52;19.88;;;;;;;6.15;89.50;100285.06;5270852;28;20036;-78
2024/03/09 01:52:47;;;;;;;27.15;19.27;;;;;;;6.26;88.75;100279.03;5289555;28;20054;-78
2024/03/09 01:55:20;;;;;;;25.42;19.75;;;;;;;6.09;88.47;100268.13;5284607;28;20533;-78
2024/03/09 01:57:52;;;;;;;23.60;18.05;;;;;;;6.14;88.76;100259.13;5283944;28;20027;-78
2024/03/09 02:00:25;;;;;;;25.23;18.30;;;;;;;6.04;87.95;100257.25;5266051;28;20044;-77
2024/03/09 02:02:58;;;;;;;25.42;19.45;;;;;;;6.09;87.25;100252.50;5270805;28;20051;-78
2024/03/09 02:05:30;;;;;;;25.00;18.85;;;;;;;6.17;87.76;100266.72;5284993;28;20052;-78
2024/03/09 02:08:05;;;;;;;22.88;17.70;;;;;;;6.17;87.60;100264.13;5286647;28;20528;-78
2024/03/09 02:10:38;;;;;;;21.65;17.73;;;;;;;6.20;88.17;100254.31;5288008;28;20024;-78
2024/03/09 02:13:10;;;;;;;20.25;16.27;;;;;;;6.24;87.64;100260.94;5287008;28;20032;-78
2024/03/09 02:15:47;;;;;;;22.55;17.67;;;;;;;6.31;87.55;100253.50;5286881;28;20082;-78
2024/03/09 02:18:20;;;;;;;23.20;16.63;;;;;;;6.14;87.83;100248.75;5269290;28;20078;-78
2024/03/09 02:20:54;;;;;;;21.58;17.42;;;;;;;6.21;87.13;100245.59;5287837;28;20032;-78
2024/03/09 02:23:30;;;;;;;22.90;17.27;;;;;;;6.32;86.73;100249.94;5269471;28;21067;-78
2024/03/09 02:26:03;;;;;;;22.20;18.00;;;;;;;6.17;86.98;100225.09;5285955;28;20029;-78
2024/03/09 02:28:35;;;;;;;23.17;17.90;;;;;;;6.25;86.78;100227.94;5285906;28;20615;-78
2024/03/09 02:31:07;;;;;;;27.02;17.88;;;;;;;6.24;87.41;100239.31;5290859;28;20399;-78
2024/03/09 02:33:39;;;;;;;22.95;16.58;;;;;;;6.24;87.40;100227.13;5286453;28;20054;-78
2024/03/09 02:36:12;;;;;;;22.60;16.85;;;;;;;6.22;86.68;100233.41;5270421;28;20043;-78
2024/03/09 02:38:44;;;;;;;22.63;17.23;;;;;;;6.15;86.82;100211.41;5279366;28;20035;-78
2024/03/09 02:41:17;;;;;;;22.92;16.95;;;;;;;6.25;86.85;100222.75;5287936;28;20477;-77
2024/03/09 02:43:49;;;;;;;21.67;16.75;;;;;;;6.18;86.97;100217.19;5287524;28;20040;-78
2024/03/09 02:46:25;;;;;;;20.95;16.08;;;;;;;6.27;87.10;100224.28;5285646;28;20040;-78
2024/03/09 02:48:56;;;;;;;22.60;16.40;;;;;;;6.21;87.08;100221.31;5287396;28;20027;-78
2024/03/09 02:51:29;;;;;;;25.83;17.10;;;;;;;6.24;86.87;100227.13;5288737;28;20124;-78
2024/03/09 02:54:02;;;;;;;22.10;16.58;;;;;;;6.29;85.83;100224.19;5288862;28;20035;-78
2024/03/09 02:56:34;;;;;;;24.67;17.05;;;;;;;6.26;87.88;100219.22;5287047;28;20035;-78
2024/03/09 02:59:06;;;;;;;22.15;16.95;;;;;;;6.25;87.09;100218.38;5286089;28;20485;-78
2024/03/09 03:01:38;;;;;;;23.38;16.42;;;;;;;6.20;88.31;100215.28;5285597;28;20063;-78
2024/03/09 03:04:11;;;;;;;21.58;16.00;;;;;;;6.21;87.67;100216.97;5277938;28;20139;-78
2024/03/09 03:06:43;;;;;;;22.80;16.38;;;;;;;6.16;87.52;100202.66;5278774;28;20031;-78
2024/03/09 03:09:16;;;;;;;24.15;16.30;;;;;;;6.18;86.55;100205.97;5283991;28;20035;-77
2024/03/09 03:11:48;;;;;;;22.40;15.87;;;;;;;6.19;89.75;100205.03;5270574;28;20058;-78
2024/03/09 03:14:20;;;;;;;22.33;16.65;;;;;;;6.14;90.74;100191.53;5286622;28;20504;-78
2024/03/09 03:16:54;;;;;;;20.02;15.70;;;;;;;6.21;87.27;100203.13;5281456;28;20028;-78
2024/03/09 03:19:28;;;;;;;19.65;15.63;;;;;;;6.21;86.99;100195.31;5284204;28;20032;-77
2024/03/09 03:22:00;;;;;;;20.88;15.65;;;;;;;6.23;86.84;100193.44;5285393;28;20051;-78
2024/03/09 03:24:32;;;;;;;20.75;16.13;;;;;;;6.25;86.54;100189.78;5277035;28;20040;-78
2024/03/09 03:27:04;;;;;;;22.00;15.73;;;;;;;6.29;87.48;100193.78;5281516;28;20024;-77
2024/03/09 03:29:36;;;;;;;21.83;16.20;;;;;;;6.36;85.91;100203.72;5267768;28;20044;-78
2024/03/09 03:32:08;;;;;;;21.30;15.75;;;;;;;6.35;86.17;100200.28;5285606;28;20081;-78
2024/03/09 03:34:40;;;;;;;19.50;14.57;;;;;;;6.37;88.70;100189.78;5283939;28;20032;-78
2024/03/09 03:37:12;;;;;;;21.00;15.60;;;;;;;6.37;86.61;100184.56;5286607;28;20038;-78
2024/03/09 03:39:44;;;;;;;19.35;14.63;;;;;;;6.40;85.11;100179.09;5283829;28;20031;-78
2024/03/09 03:42:16;;;;;;;17.80;13.80;;;;;;;6.50;84.26;100191.28;5286893;28;20032;-78
2024/03/09 03:44:48;;;;;;;20.00;14.93;;;;;;;6.49;85.85;100183.59;5285636;28;20282;-78
2024/03/09 03:47:22;;;;;;;;;;;;;;;7.14;81.89;100189.72;5284245;28;20044;-78
2024/03/09 03:49:54;;;;;;;19.90;14.57;;;;;;;6.64;83.41;100181.59;5283326;28;20568;-78
2024/03/09 03:52:26;;;;;;;18.77;13.75;;;;;;;6.56;84.19;100175.19;5283943;28;20059;-78
2024/03/09 03:54:58;;;;;;;19.08;14.57;;;;;;;6.59;87.18;100184.53;5287365;28;20028;-78
2024/03/09 03:57:30;;;;;;;20.45;14.55;;;;;;;6.57;85.08;100182.06;5287250;28;20035;-78
2024/03/09 04:00:02;;;;;;;18.88;14.50;;;;;;;6.47;85.40;100154.25;5281970;28;20572;-78
2024/03/09 04:02:40;;;;;;;18.55;14.77;;;;;;;6.68;84.06;100172.56;5285469;28;20608;-78
2024/03/09 04:05:11;;;;;;;17.00;13.38;;;;;;;6.59;84.23;100174.09;5285509;28;20381;-78
2024/03/09 04:07:43;;;;;;;19.20;13.77;;;;;;;6.60;83.71;100174.97;5276068;28;20054;-78
2024/03/09 04:10:15;;;;;;;21.00;13.75;;;;;;;6.62;85.67;100163.47;5284799;28;20043;-78
2024/03/09 04:12:47;;;;;;;17.92;13.48;;;;;;;6.62;85.50;100162.63;5282346;28;20027;-78
2024/03/09 04:15:19;;;;;;;17.88;13.30;;;;;;;6.67;83.50;100179.56;5285729;28;20856;-78
2024/03/09 04:17:51;;;;;;;17.63;13.50;;;;;;;6.68;83.57;100175.19;5284330;28;20036;-78
2024/03/09 04:20:26;;;;;;;18.10;13.43;;;;;;;6.64;85.26;100171.16;5283674;28;20047;-78
2024/03/09 04:22:59;;;;;;;18.02;14.30;;;;;;;6.64;83.95;100168.56;5287297;28;20494;-78
2024/03/09 04:25:35;;;;;;;18.88;13.70;;;;;;;6.66;83.39;100164.06;5284579;28;20031;-78
2024/03/09 04:28:12;;;;;;;18.48;13.43;;;;;;;6.61;83.75;100161.00;5266580;28;20040;-78
2024/03/09 04:30:44;;;;;;;19.70;13.57;;;;;;;6.62;83.30;100162.63;5283591;28;20051;-78
2024/03/09 04:33:18;;;;;;;18.02;12.85;;;;;;;6.56;84.17;100151.78;5289599;28;20027;-78
2024/03/09 04:35:52;;;;;;;19.65;13.73;;;;;;;6.62;84.00;100160.03;5289508;28;20024;-78
2024/03/09 04:38:25;;;;;;;17.17;12.93;;;;;;;6.58;83.87;100157.66;5288199;28;20028;-78
2024/03/09 04:40:57;;;;;;;18.15;13.20;;;;;;;6.64;83.98;100161.56;5290210;28;20027;-78
2024/03/09 04:43:37;;;;;;;18.63;12.90;;;;;;;6.63;83.52;100153.88;5288222;28;20039;-78
2024/03/09 04:46:09;;;;;;;17.23;12.55;;;;;;;6.62;84.34;100155.66;5289664;28;20390;-78
2024/03/09 04:48:41;;;;;;;18.08;12.77;;;;;;;6.64;84.39;100153.78;5289184;28;20032;-78
2024/03/09 04:51:13;;;;;;;16.95;12.50;;;;;;;6.66;85.11;100151.84;5289420;28;20039;-78
2024/03/09 04:53:45;;;;;;;17.48;13.35;;;;;;;6.69;83.67;100143.00;5288724;28;20577;-78
2024/03/09 04:56:17;;;;;;;20.23;12.98;;;;;;;6.71;85.74;100141.94;5286823;28;20047;-78
2024/03/09 04:58:51;;;;;;;17.63;12.68;;;;;;;6.72;84.96;100135.75;5288674;28;20032;-78
2024/03/09 05:01:23;;;;;;;17.00;12.35;;;;;;;6.74;84.01;100135.63;5290022;28;20036;-78
2024/03/09 05:03:55;;;;;;;16.30;12.60;;;;;;;6.76;85.12;100129.34;5288828;28;20036;-78
2024/03/09 05:06:29;;;;;;;15.02;12.00;;;;;;;6.80;83.76;100122.94;5286178;28;20035;-78
2024/03/09 05:09:02;;;;;;;16.75;12.18;;;;;;;6.86;84.41;100131.22;5289187;28;20059;-76
2024/03/09 05:11:35;;;;;;;17.00;12.27;;;;;;;6.87;82.77;100122.47;5287276;28;20028;-78
2024/03/09 05:14:07;;;;;;;17.40;12.07;;;;;;;6.86;82.12;100110.38;5285992;28;20031;-78
2024/03/09 05:16:39;;;;;;;15.50;11.85;;;;;;;6.83;82.85;100114.09;5288385;28;20032;-78
2024/03/09 05:19:11;;;;;;;17.38;13.68;;;;;;;6.95;83.37;100122.66;5284526;28;20031;-78
2024/03/09 05:21:44;;;;;;;15.40;11.13;;;;;;;6.91;82.98;100103.88;5288975;28;20123;-78
2024/03/09 05:24:17;;;;;;;17.20;12.73;;;;;;;6.97;83.71;100107.72;5290254;28;20024;-78
2024/03/09 05:26:49;;;;;;;15.80;12.35;;;;;;;6.94;82.10;100093.19;5282954;28;20036;-79
2024/03/09 05:29:21;;;;;;;17.02;12.43;;;;;;;7.00;83.85;100100.50;5283502;28;20119;-78
2024/03/09 05:31:53;;;;;;;14.65;11.70;;;;;;;7.02;82.60;100103.00;5285151;28;20271;-79
2024/03/09 05:34:25;;;;;;;15.35;11.50;;;;;;;7.03;82.63;100094.22;5291495;28;20023;-79
2024/03/09 05:37:00;;;;;;;16.40;11.68;;;;;;;6.98;83.31;100078.16;5289634;28;20043;-79
2024/03/09 05:39:36;;;;;;;18.52;12.57;;;;;;;7.04;82.80;100095.88;5281515;28;20043;-79
2024/03/09 05:42:08;;;;;;;17.13;11.73;;;;;;;7.05;83.08;100100.16;5287066;28;20020;-79
2024/03/09 05:44:40;;;;;;;15.85;12.13;;;;;;;7.05;83.64;100106.19;5285657;28;20656;-79
2024/03/09 05:47:12;;;;;;;15.43;11.07;;;;;;;7.05;82.45;100097.53;5286979;28;20036;-79
2024/03/09 05:49:44;;;;;;;14.43;11.43;;;;;;;7.05;82.15;100100.16;5283302;28;20036;-79
2024/03/09 05:52:15;;;;;;;14.57;11.05;;;;;;;7.04;82.40;100104.50;5289263;28;20531;-79
2024/03/09 05:54:48;;;;;;;17.42;12.05;;;;;;;7.01;82.52;100099.56;5285136;28;20036;-79
2024/03/09 05:57:22;;;;;;;15.57;11.52;;;;;;;7.02;84.08;100093.41;5291304;28;20199;-79
2024/03/09 05:59:54;;;;;;;14.85;11.48;;;;;;;7.02;81.93;100097.78;5286598;28;20036;-79
2024/03/09 06:02:29;;;;;;;14.55;11.32;;;;;;;7.03;81.90;100094.22;5286922;28;20031;-79
2024/03/09 06:05:01;;;;;;;13.35;11.13;;;;;;;6.97;82.87;100092.97;5290291;28;20051;-79
2024/03/09 06:07:40;;;;;;;16.75;12.35;;;;;;;7.11;83.34;100098.81;5288851;28;20032;-79
2024/03/09 06:10:14;;;;;;;18.05;11.90;;;;;;;6.94;83.58;100092.38;5286524;28;20547;-79
2024/03/09 06:12:47;;;;;;;14.70;11.55;;;;;;;6.92;83.93;100102.91;5288853;28;20504;-79
2024/03/09 06:15:23;;;;;;;15.93;11.80;;;;;;;6.97;84.02;100102.53;5288711;28;20601;-79
2024/03/09 06:17:58;;;;;;;16.55;11.27;;;;;;;6.89;84.94;100092.72;5288615;28;20050;-79
2024/03/09 06:20:32;;;;;;;16.23;12.23;;;;;;;6.87;85.90;100093.81;5285123;28;20031;-79
2024/03/09 06:23:04;;;;;;;15.48;11.68;;;;;;;6.90;84.12;100099.63;5288034;28;20048;-79
2024/03/09 06:25:36;;;;;;;15.60;10.85;;;;;;;6.87;84.31;100088.63;5286861;28;20042;-79
2024/03/09 06:28:12;;;;;;;14.13;10.97;;;;;;;6.59;85.50;100049.19;5286784;28;20398;-79
2024/03/09 06:30:45;;;;;;;13.93;11.52;;;;;;;6.87;84.96;100099.03;5283084;28;20032;-79
2024/03/09 06:33:17;;;;;;;16.27;12.10;;;;;;;6.90;85.54;100104.00;5283937;28;20028;-79
2024/03/09 06:35:53;;;;;;;15.20;11.70;;;;;;;6.86;85.36;100103.41;5287197;28;20599;-79
2024/03/09 06:38:25;;;;;;;14.13;11.07;;;;;;;6.91;84.90;100100.44;5274583;28;20032;-79
2024/03/09 06:40:58;;;;;;;16.95;11.75;;;;;;;6.86;86.43;100100.81;5285882;28;20553;-79
2024/03/09 06:43:31;;;;;;;16.10;11.57;;;;;;;6.93;85.59;100101.97;5283647;28;20284;-80
2024/03/09 06:46:03;;;;;;;16.10;12.07;;;;;;;6.89;86.12;100100.53;5287785;28;20393;-79
2024/03/09 06:48:35;;;;;;;14.90;11.23;;;;;;;6.87;87.23;100099.03;5277153;28;20039;-80
2024/03/09 06:51:07;;;;;;;14.85;11.00;;;;;;;6.93;85.21;100115.00;5271431;28;20037;-79
2024/03/09 06:53:43;;;;;;;14.75;11.93;;;;;;;6.95;85.62;100104.44;5283859;28;20516;-78
2024/03/09 06:56:17;;;;;;;15.68;11.65;;;;;;;7.03;84.75;100113.28;5289850;28;20024;-79
2024/03/09 06:58:49;;;;;;;14.10;11.35;;;;;;;7.06;85.56;100110.44;5265578;28;20467;-78
2024/03/09 07:01:21;;;;;;;15.07;11.30;;;;;;;7.06;84.97;100114.81;5283471;28;20028;-78
2024/03/09 07:03:53;;;;;;;14.88;11.25;;;;;;;7.15;83.91;100110.63;5284395;28;20485;-78
2024/03/09 07:06:25;;;;;;;15.00;11.77;;;;;;;7.14;85.22;100108.97;5283489;28;20043;-78
2024/03/09 07:09:00;;;;;;;15.57;11.40;;;;;;;7.18;84.79;100105.16;5281532;28;20039;-78
2024/03/09 07:11:32;;;;;;;14.52;11.40;;;;;;;7.24;83.76;100112.47;5281619;28;20035;-78
2024/03/09 07:14:04;;;;;;;15.68;11.45;;;;;;;7.26;84.32;100115.78;5275755;28;20383;-78
2024/03/09 07:16:36;;;;;;;14.98;11.20;;;;;;;7.29;83.76;100100.72;5282629;28;20043;-78
2024/03/09 07:19:08;;;;;;;15.63;11.18;;;;;;;7.37;83.12;100117.50;5283339;28;20044;-78
2024/03/09 07:21:40;;;;;;;17.13;11.85;;;;;;;7.39;82.70;100110.38;5282954;28;20020;-78
2024/03/09 07:24:14;;;;;;;13.07;11.20;;;;;;;7.50;83.22;100110.28;5280850;28;20732;-78
2024/03/09 07:26:48;;;;;;;14.57;11.68;;;;;;;7.50;83.10;100102.47;5260184;28;20043;-78
2024/03/09 07:29:20;;;;;;;16.38;12.02;;;;;;;7.57;82.48;100103.63;5280946;28;20029;-78
2024/03/09 07:31:52;;;;;;;14.82;11.15;;;;;;;7.62;82.13;100113.69;5282591;28;20036;-78
2024/03/09 07:34:23;;;;;;;16.13;11.57;;;;;;;7.64;80.29;100117.78;5282446;28;20326;-78
2024/03/09 07:36:55;;;;;;;15.48;12.13;;;;;;;7.68;81.33;100116.56;5268724;28;20507;-78
2024/03/09 07:39:30;;;;;;;17.17;12.32;;;;;;;7.75;80.99;100114.28;5281233;28;20028;-78
2024/03/09 07:42:02;;;;;;;15.07;11.50;;;;;;;7.84;81.61;100110.06;5280061;28;20024;-78
2024/03/09 07:44:34;;;;;;;14.57;11.70;;;;;;;7.91;81.44;100090.31;5281662;28;20043;-78
2024/03/09 07:47:08;;;;;;;16.40;11.90;;;;;;;7.93;81.05;100083.22;5277718;28;20298;-78
2024/03/09 07:49:40;;;;;;;15.55;12.40;;;;;;;7.90;81.08;100086.06;5277068;28;20039;-78
2024/03/09 07:52:12;;;;;;;16.35;11.45;;;;;;;7.81;81.23;100116.38;5267527;28;20028;-78
2024/03/09 07:54:44;;;;;;;14.48;11.60;;;;;;;7.83;81.53;100100.59;5276662;28;20047;-78
2024/03/09 07:57:15;;;;;;;16.33;12.77;;;;;;;7.89;80.69;100113.13;5278975;28;20672;-78
2024/03/09 07:59:47;;;;;;;13.63;10.95;;;;;;;7.96;80.04;100109.84;5278661;28;20038;-79
2024/03/09 08:02:19;;;;;;;17.00;12.45;;;;;;;7.96;79.66;100085.56;5270946;28;20032;-78
2024/03/09 08:04:51;;;;;;;13.57;10.65;;;;;;;8.08;79.67;100101.94;5273910;28;20055;-78
2024/03/09 08:07:24;;;;;;;16.13;12.63;;;;;;;8.18;76.12;100087.13;5272392;28;20509;-79
2024/03/09 08:09:56;;;;;;;14.40;10.90;;;;;;;8.31;77.79;100094.72;5281745;28;20036;-78
2024/03/09 08:12:28;;;;;;;18.50;12.60;;;;;;;8.41;76.32;100101.66;5281188;28;20035;-79
2024/03/09 08:15:03;;;;;;;15.95;11.65;;;;;;;8.41;75.43;100093.81;5279683;28;20039;-78
2024/03/09 08:17:35;;;;;;;15.98;11.95;;;;;;;8.42;76.11;100081.59;5275256;28;20044;-78
2024/03/09 08:20:14;;;;;;;14.98;11.57;;;;;;;8.62;75.32;100091.09;5277048;28;20023;-78
2024/03/09 08:22:46;;;;;;;15.70;11.70;;;;;;;8.61;74.89;100075.56;5280666;28;20098;-79
2024/03/09 08:25:18;;;;;;;15.57;11.60;;;;;;;8.73;73.52;100084.91;5281072;28;20557;-78
2024/03/09 08:27:49;;;;;;;14.70;11.48;;;;;;;8.83;73.73;100079.72;5281941;28;20121;-79
2024/03/09 08:30:21;;;;;;;13.63;10.60;;;;;;;8.97;72.90;100072.25;5282632;28;20028;-79
2024/03/09 08:32:54;;;;;;;14.73;11.20;;;;;;;8.95;73.42;100050.69;5281093;28;20532;-78
2024/03/09 08:35:31;;;;;;;13.70;10.50;;;;;;;9.16;72.33;100070.59;5284237;28;20016;-78
2024/03/09 08:38:03;;;;;;;18.33;12.32;;;;;;;9.14;72.97;100065.50;5280710;28;20031;-79
2024/03/09 08:40:35;;;;;;;14.05;11.18;;;;;;;9.26;72.09;100058.34;5283332;28;20040;-78
2024/03/09 08:43:07;;;;;;;13.65;11.35;;;;;;;9.25;71.39;100044.44;5280382;28;20029;-78
2024/03/09 08:45:42;;;;;;;16.23;11.77;;;;;;;9.38;69.36;100059.81;5280839;28;20043;-79
2024/03/09 08:48:14;;;;;;;14.85;10.60;;;;;;;9.49;69.25;100061.44;5276220;28;20126;-79
2024/03/09 08:50:46;;;;;;;14.52;11.45;;;;;;;9.55;68.92;100062.69;5263736;28;20048;-79
2024/03/09 08:53:18;;;;;;;13.95;11.15;;;;;;;9.66;68.17;100068.56;5278691;28;20481;-79
2024/03/09 08:55:51;;;;;;;13.18;11.05;;;;;;;9.73;68.85;100063.56;5278759;28;20040;-79
2024/03/09 08:58:23;;;;;;;15.15;10.85;;;;;;;9.88;66.94;100059.50;5279046;28;20413;-79
2024/03/09 09:00:56;;;;;;;13.20;10.85;;;;;;;10.02;67.14;100060.00;5282160;28;20032;-79
2024/03/09 09:03:28;;;;;;;14.70;10.88;;;;;;;10.19;65.87;100056.56;5280072;28;20040;-79
2024/03/09 09:06:01;;;;;;;13.13;10.52;;;;;;;10.18;63.59;100041.84;5273944;28;20051;-79
2024/03/09 09:08:36;;;;;;;14.40;11.23;;;;;;;10.27;65.80;100054.09;5279166;28;20036;-79
2024/03/09 09:11:13;;;;;;;14.20;10.40;;;;;;;10.46;63.56;100063.63;5283453;28;20028;-79
2024/03/09 09:13:44;;;;;;;13.68;10.45;;;;;;;10.56;62.68;100060.91;5275383;28;20047;-79
2024/03/09 09:16:18;;;;;;;13.98;10.65;;;;;;;10.62;61.29;100053.28;5284434;28;20389;-79
2024/03/09 09:18:49;;;;;;;13.15;10.50;;;;;;;10.51;62.93;100043.03;5284708;28;20028;-79
2024/03/09 09:21:21;;;;;;;14.18;11.18;;;;;;;10.53;62.42;100050.75;5285732;28;20031;-79
2024/03/09 09:23:53;;;;;;;15.23;11.18;;;;;;;10.58;62.69;100044.09;5283577;28;20031;-80
2024/03/09 09:26:25;;;;;;;15.80;11.60;;;;;;;10.67;62.50;100044.97;5289062;28;20595;-79
2024/03/09 09:28:57;;;;;;;14.32;10.65;;;;;;;10.66;62.87;100041.53;5283176;28;20091;-79
2024/03/09 09:31:33;;;;;;;13.95;11.18;;;;;;;10.71;62.43;100030.59;5282032;28;20036;-79
2024/03/09 09:34:06;;;;;;;13.73;11.65;;;;;;;10.78;62.37;100036.88;5281990;28;20036;-79
2024/03/09 09:36:38;;;;;;;13.65;10.40;;;;;;;10.93;63.10;100042.41;5285865;28;20367;-79
2024/03/09 09:39:14;;;;;;;13.93;11.77;;;;;;;10.98;61.79;100041.97;5287466;28;20047;-79
2024/03/09 09:41:48;;;;;;;12.95;10.82;;;;;;;11.04;63.07;100044.78;5274961;28;20028;-79
2024/03/09 09:44:20;;;;;;;11.98;10.65;;;;;;;11.13;62.80;100043.06;5286754;28;20070;-78
2024/03/09 09:46:53;;;;;;;14.68;12.07;;;;;;;11.14;60.47;100024.56;5285327;28;20040;-78
2024/03/09 09:49:26;;;;;;;;;;;;;;;11.78;60.80;100026.84;5286924;28;20024;-79
2024/03/09 09:51:58;;;;;;;16.42;11.73;;;;;;;11.31;61.66;100019.41;5288783;28;19915;-79
2024/03/09 09:54:32;;;;;;;14.95;12.43;;;;;;;11.44;60.64;100006.72;5268263;28;20363;-79
2024/03/09 09:57:04;;;;;;;13.85;10.90;;;;;;;11.52;59.83;100005.94;5286115;28;20028;-79
2024/03/09 09:59:36;;;;;;;15.18;11.88;;;;;;;11.63;58.59;100019.59;5286131;28;20032;-78
2024/03/09 10:02:08;;;;;;;14.68;12.18;;;;;;;11.69;59.86;100013.69;5277801;28;20727;-81
2024/03/09 10:04:39;;;;;;;16.00;12.52;;;;;;;11.78;59.24;100021.59;5277372;28;20139;-80
2024/03/09 10:07:12;;;;;;;14.85;11.52;;;;;;;11.90;58.55;100020.38;5281832;28;20039;-79
2024/03/09 10:09:47;;;;;;;14.85;11.65;;;;;;;11.93;57.97;100018.28;5276457;28;20042;-79
2024/03/09 10:12:20;;;;;;;14.05;12.00;;;;;;;11.93;57.90;100014.81;5278969;28;20048;-79
2024/03/09 10:14:52;;;;;;;14.18;11.50;;;;;;;11.88;58.07;100004.78;5281559;28;20390;-81
2024/03/09 10:17:24;;;;;;;15.63;11.60;;;;;;;11.87;57.42;100007.56;5266748;28;20032;-79
2024/03/09 10:19:56;;;;;;;12.95;10.82;;;;;;;11.85;58.56;100002.47;5282027;28;20031;-79
2024/03/09 10:22:28;;;;;;;13.85;11.45;;;;;;;11.74;56.90;99989.59;5281189;28;20050;-78
2024/03/09 10:25:00;;;;;;;14.13;11.35;;;;;;;11.85;59.43;99999.84;5281301;28;20098;-78
2024/03/09 10:27:32;;;;;;;15.27;11.95;;;;;;;11.99;59.10;100010.72;5280268;28;20405;-79
2024/03/09 10:30:10;;;;;;;13.88;11.55;;;;;;;12.10;57.98;100008.63;5279243;28;20155;-81
2024/03/09 10:32:42;;;;;;;13.57;11.90;;;;;;;11.98;56.90;99996.78;5279781;28;20038;-80
2024/03/09 10:35:14;;;;;;;14.73;11.70;;;;;;;12.06;56.53;99999.44;5282029;28;20043;-82
2024/03/09 10:37:50;;;;;;;14.35;12.13;;;;;;;12.21;57.89;99997.00;5283790;28;20424;-78
2024/03/09 10:40:23;;;;;;;15.43;12.20;;;;;;;12.15;56.73;99995.00;5282379;28;20035;-78
2024/03/09 10:42:55;;;;;;;;;;;;;;;12.80;55.33;99984.53;5281696;28;20043;-78
2024/03/09 10:45:33;;;;;;;15.82;12.57;;;;;;;12.62;55.79;100003.13;5274506;28;19916;-80
2024/03/09 10:48:09;;;;;;;14.07;11.32;;;;;;;12.79;56.10;99980.28;5256883;28;20048;-79
2024/03/09 10:50:55;;;;;;;14.57;11.68;;;;;;;13.06;55.56;99996.69;5279365;28;20028;-79
2024/03/09 10:53:49;;;;;;;15.57;12.38;;;;;;;13.12;56.74;99986.31;5277403;28;20039;-79
2024/03/09 10:56:22;;;;;;;16.05;12.57;;;;;;;12.90;54.63;99979.13;5279863;28;20039;-80
2024/03/09 10:58:57;;;;;;;14.50;11.50;;;;;;;12.77;54.29;99979.63;5281740;28;20043;-82
2024/03/09 11:01:29;;;;;;;14.25;11.68;;;;;;;12.94;55.30;99974.34;5279640;28;20035;-82
2024/03/09 11:04:04;;;;;;;16.40;13.07;;;;;;;13.04;54.65;99985.53;5280519;28;20051;-81
2024/03/09 11:06:37;;;;;;;15.02;12.43;;;;;;;13.09;55.03;99981.38;5263552;28;20052;-81
2024/03/09 11:09:11;;;;;;;15.95;12.80;;;;;;;13.11;55.49;99968.91;5278046;28;20051;-80
2024/03/09 11:11:45;;;;;;;16.15;12.82;;;;;;;13.02;54.52;99962.00;5281343;28;20379;-79
2024/03/09 11:14:22;;;;;;;16.15;12.02;;;;;;;12.95;55.50;99955.78;5283235;28;20039;-79
2024/03/09 11:16:55;;;;;;;14.50;11.35;;;;;;;13.01;55.53;99960.38;5285502;28;20035;-79
2024/03/09 11:19:27;;;;;;;13.68;11.88;;;;;;;13.04;54.71;99953.97;5283444;28;20035;-82
2024/03/09 11:22:03;;;;;;;15.98;12.07;;;;;;;13.24;55.43;99950.00;5280647;28;20389;-80
2024/03/09 11:24:39;;;;;;;14.07;11.52;;;;;;;13.39;55.25;99934.31;5283702;28;20405;-80
2024/03/09 11:27:13;;;;;;;14.25;11.95;;;;;;;13.58;54.21;99957.59;5283420;28;20035;-80
2024/03/09 11:29:45;;;;;;;15.30;12.32;;;;;;;13.61;53.16;99953.81;5273384;28;20036;-79
2024/03/09 11:32:21;;;;;;;14.05;11.65;;;;;;;13.69;52.78;99952.94;5282556;28;20044;-80
2024/03/09 11:35:32;;;;;;;15.60;11.52;;;;;;;13.99;53.29;99938.13;5281885;28;20035;-80
2024/03/09 11:38:16;;;;;;;13.30;11.23;;;;;;;14.11;53.58;99942.00;5277199;28;20028;-80
2024/03/09 11:40:48;;;;;;;13.20;11.45;;;;;;;14.18;51.78;99931.59;5273455;28;20043;-81
2024/03/09 11:43:24;;;;;;;15.50;11.93;;;;;;;14.52;51.97;99939.09;5284360;28;20032;-81